Time;durP1;ratioP1;P1;durP2;ratioP2;P2;SDS_P1;SDS_P2;PMS_P1;PMS_P2;Temp;Humidity;BMP_temperature;BMP_pressure;BME280_temperature;BME280_humidity;BME280_pressure;Samples;Min_cycle;Max_cycle;Signal;HPM_P1;HPM_P2
2020/12/29 00:02:27;;;;;;;29.80;14.38;;;;;;;2.06;72.76;101066.84;1762183;80;21382;-52
2020/12/29 00:05:34;;;;;;;23.87;14.00;;;;;;;2.14;72.57;101061.79;1761854;81;21315;-52
2020/12/29 00:08:39;;;;;;;27.07;14.10;;;;;;;2.20;72.51;101060.04;1761724;81;21385;-53
2020/12/29 00:11:45;;;;;;;26.90;14.80;;;;;;;2.26;72.35;101061.43;1761854;80;21389;-53
2020/12/29 00:14:50;;;;;;;28.15;15.35;;;;;;;2.28;72.22;101056.32;1761664;81;21215;-53
2020/12/29 00:17:56;;;;;;;21.25;12.58;;;;;;;2.39;72.23;101042.05;1761549;81;21342;-54
2020/12/29 00:21:01;;;;;;;25.00;13.50;;;;;;;2.50;72.01;101046.20;1761756;81;21338;-54
2020/12/29 00:24:07;;;;;;;30.50;14.20;;;;;;;2.52;71.73;101048.33;1760536;80;21204;-53
2020/12/29 00:27:15;;;;;;;29.98;14.68;;;;;;;2.57;71.61;101051.57;1761152;81;21259;-53
2020/12/29 00:30:21;;;;;;;27.40;14.93;;;;;;;2.63;71.39;101051.97;1761914;80;21247;-53
2020/12/29 00:33:26;;;;;;;29.00;15.90;;;;;;;2.64;71.22;101043.38;1761955;81;21228;-51
2020/12/29 00:36:32;;;;;;;31.73;15.08;;;;;;;2.66;71.10;101040.09;1761638;81;21365;-51
2020/12/29 00:39:38;;;;;;;27.48;15.40;;;;;;;2.66;70.95;101040.09;1761478;81;21212;-53
2020/12/29 00:42:43;;;;;;;29.55;14.90;;;;;;;2.64;70.91;101040.68;1761425;81;21406;-52
2020/12/29 00:45:49;;;;;;;30.85;16.62;;;;;;;2.65;71.02;101020.78;1762545;80;21326;-54
2020/12/29 00:48:54;;;;;;;28.17;16.00;;;;;;;2.65;70.89;101013.55;1761599;81;21208;-53
2020/12/29 00:52:01;;;;;;;27.85;15.03;;;;;;;2.61;70.92;101016.11;1761581;81;21378;-53
2020/12/29 00:55:09;;;;;;;22.32;14.45;;;;;;;2.63;70.99;101013.29;1761725;80;21260;-53
2020/12/29 00:58:15;;;;;;;30.40;15.55;;;;;;;2.59;70.90;101009.94;1761792;81;21215;-53
2020/12/29 01:01:22;;;;;;;25.32;15.13;;;;;;;2.56;71.00;101002.53;1761900;81;21799;-53
2020/12/29 01:04:35;;;;;;;24.27;14.47;;;;;;;2.50;71.19;101002.97;1737548;81;21590;-53
2020/12/29 01:07:40;;;;;;;22.00;13.53;;;;;;;2.48;71.35;101007.61;1761668;81;21863;-53
2020/12/29 01:10:45;;;;;;;24.67;13.10;;;;;;;2.43;71.55;101013.35;1745650;81;21326;-53
2020/12/29 01:13:55;;;;;;;27.20;16.87;;;;;;;2.38;71.61;101011.97;1761853;81;21259;-53
2020/12/29 01:17:04;;;;;;;26.55;15.32;;;;;;;2.32;71.84;101001.09;1761649;81;21338;-53
2020/12/29 01:20:11;;;;;;;26.33;15.13;;;;;;;2.30;71.89;100998.14;1761961;80;21385;-54
2020/12/29 01:23:16;;;;;;;25.12;15.13;;;;;;;2.30;72.20;100991.38;1761789;81;21406;-52
2020/12/29 01:26:32;;;;;;;33.83;15.43;;;;;;;2.35;72.23;101005.41;1763077;79;21362;-53
2020/12/29 01:29:37;;;;;;;26.57;14.85;;;;;;;2.34;72.11;100996.93;1761758;80;21373;-52
2020/12/29 01:32:45;;;;;;;26.40;15.10;;;;;;;2.18;72.27;100997.16;1762151;81;21438;-52
2020/12/29 01:35:50;;;;;;;27.73;15.53;;;;;;;2.16;72.59;100986.06;1762015;80;21828;-53
2020/12/29 01:38:55;;;;;;;34.10;15.80;;;;;;;2.19;72.71;100984.53;1761869;81;21216;-52
2020/12/29 01:42:01;;;;;;;25.75;15.85;;;;;;;2.21;72.80;100973.98;1761665;81;21314;-53
2020/12/29 01:45:07;;;;;;;25.55;15.68;;;;;;;2.23;72.88;100964.42;1761748;81;21362;-52
2020/12/29 01:48:14;;;;;;;27.20;17.07;;;;;;;2.29;72.97;100958.57;1761568;81;21378;-52
2020/12/29 01:51:20;;;;;;;29.92;15.32;;;;;;;2.38;72.98;100949.33;1761870;81;21207;-53
2020/12/29 01:54:25;;;;;;;23.25;14.83;;;;;;;2.46;72.68;100936.61;1761824;81;21346;-54
2020/12/29 01:57:31;;;;;;;25.02;15.40;;;;;;;2.46;72.56;100943.36;1762052;81;21374;-53
2020/12/29 02:00:37;;;;;;;24.23;15.03;;;;;;;2.47;72.52;100940.58;1761783;80;21263;-53
2020/12/29 02:03:43;;;;;;;24.00;14.63;;;;;;;2.52;72.45;100954.59;1762163;80;21369;-52
2020/12/29 02:06:48;;;;;;;20.30;13.48;;;;;;;2.52;72.14;100962.70;1736806;81;21413;-54
2020/12/29 02:09:54;;;;;;;22.00;14.18;;;;;;;2.45;72.10;100986.22;1761639;81;21346;-53
2020/12/29 02:12:59;;;;;;;24.23;14.80;;;;;;;2.26;72.14;100976.35;1762232;81;21354;-53
2020/12/29 02:16:06;;;;;;;17.73;12.75;;;;;;;2.15;72.50;100977.59;1761575;81;21385;-53
2020/12/29 02:19:14;;;;;;;22.35;13.70;;;;;;;2.16;72.88;100977.96;1761522;81;21374;-53
2020/12/29 02:22:20;;;;;;;19.80;13.00;;;;;;;2.20;72.88;100968.69;1761691;80;21389;-53
2020/12/29 02:25:27;;;;;;;25.95;16.32;;;;;;;2.21;73.02;100957.78;1761816;80;21366;-53
2020/12/29 02:28:32;;;;;;;23.85;13.90;;;;;;;2.20;73.00;100948.44;1761624;81;21276;-53
2020/12/29 02:31:37;;;;;;;28.52;16.17;;;;;;;2.20;73.08;100948.44;1762005;81;21366;-53
2020/12/29 02:34:42;;;;;;;23.50;14.73;;;;;;;2.26;73.18;100959.67;1761906;81;21405;-52
2020/12/29 02:37:48;;;;;;;22.13;14.00;;;;;;;2.30;72.97;100948.17;1761835;81;21346;-53
2020/12/29 02:40:56;;;;;;;24.30;15.30;;;;;;;2.14;72.88;100952.92;1761710;81;21323;-52
2020/12/29 02:44:01;;;;;;;26.50;15.78;;;;;;;1.96;73.15;100955.56;1761676;81;21413;-54
2020/12/29 02:47:10;;;;;;;25.25;14.87;;;;;;;1.87;73.53;100950.31;1761454;81;21342;-54
2020/12/29 02:50:16;;;;;;;19.60;14.18;;;;;;;1.83;73.77;100941.19;1761980;81;21326;-53
2020/12/29 02:53:21;;;;;;;20.15;13.48;;;;;;;1.79;74.08;100921.67;1761539;81;21268;-52
2020/12/29 02:56:28;;;;;;;19.77;13.43;;;;;;;1.74;74.23;100929.70;1761517;81;21279;-52
2020/12/29 02:59:34;;;;;;;18.42;13.15;;;;;;;1.68;74.48;100927.43;1761651;81;21890;-54
2020/12/29 03:02:39;;;;;;;21.27;14.10;;;;;;;1.64;74.77;100923.20;1761451;81;21330;-53
2020/12/29 03:05:45;;;;;;;23.62;15.70;;;;;;;1.70;75.02;100934.94;1761802;81;21212;-52
2020/12/29 03:08:52;;;;;;;22.85;15.45;;;;;;;1.75;75.03;100956.57;1761371;81;21373;-53
2020/12/29 03:12:00;;;;;;;19.25;13.38;;;;;;;1.77;75.05;100942.97;1761548;81;21823;-52
2020/12/29 03:15:05;;;;;;;22.48;16.05;;;;;;;1.72;75.11;100943.77;1761761;81;21193;-52
2020/12/29 03:18:10;;;;;;;20.37;14.33;;;;;;;1.65;75.25;100933.04;1761535;81;21385;-53
2020/12/29 03:21:16;;;;;;;20.40;14.30;;;;;;;1.69;75.48;100912.95;1761604;81;21729;-52
2020/12/29 03:24:21;;;;;;;20.85;14.15;;;;;;;1.70;75.48;100931.73;1761700;81;21287;-53
2020/12/29 03:27:27;;;;;;;21.37;13.70;;;;;;;1.70;75.49;100936.29;1762368;78;21373;-52
2020/12/29 03:30:32;;;;;;;20.60;13.40;;;;;;;1.67;75.56;100927.91;1761977;80;21363;-53
2020/12/29 03:33:38;;;;;;;20.23;14.25;;;;;;;1.67;75.65;100932.42;1761757;81;21378;-53
2020/12/29 03:36:44;;;;;;;22.22;14.03;;;;;;;1.64;75.75;100948.36;1761744;81;21322;-52
2020/12/29 03:39:50;;;;;;;21.57;14.38;;;;;;;1.66;75.80;100924.84;1761972;81;21346;-52
2020/12/29 03:42:55;;;;;;;21.90;14.78;;;;;;;1.65;75.91;100920.39;1763601;80;21342;-52
2020/12/29 03:46:02;;;;;;;20.77;14.50;;;;;;;1.69;75.92;100944.86;1761646;81;21205;-51
2020/12/29 03:49:08;;;;;;;21.82;13.15;;;;;;;1.74;75.92;100954.86;1761726;81;21236;-52
2020/12/29 03:52:13;;;;;;;19.55;12.28;;;;;;;1.77;75.88;100940.27;1761808;80;21421;-51
2020/12/29 03:55:18;;;;;;;18.62;13.25;;;;;;;1.78;75.86;100954.13;1761820;81;21382;-53
2020/12/29 03:58:22;;;;;;;17.90;11.88;;;;;;;1.78;75.83;100954.13;1761918;80;21369;-52
2020/12/29 04:01:28;;;;;;;19.52;13.40;;;;;;;1.78;75.81;100942.86;1761899;81;21350;-53
2020/12/29 04:04:33;;;;;;;18.45;12.43;;;;;;;1.75;75.83;100948.95;1761628;81;21930;-53
2020/12/29 04:07:39;;;;;;;17.73;10.72;;;;;;;1.71;75.92;100943.41;1762028;80;22219;-53
2020/12/29 04:10:44;;;;;;;18.48;12.05;;;;;;;1.70;76.07;100951.97;1761692;81;21236;-51
2020/12/29 04:13:49;;;;;;;18.73;11.90;;;;;;;1.64;76.06;100929.95;1761683;81;21348;-52
2020/12/29 04:16:55;;;;;;;20.08;13.18;;;;;;;1.63;76.25;100941.72;1761739;81;21399;-52
2020/12/29 04:19:59;;;;;;;17.17;11.78;;;;;;;1.60;76.32;100931.14;1761628;81;21386;-52
2020/12/29 04:23:05;;;;;;;18.92;13.13;;;;;;;1.60;76.46;100920.35;1761379;81;21228;-52
2020/12/29 04:26:11;;;;;;;20.75;12.47;;;;;;;1.60;76.59;100913.61;1761829;81;21370;-52
2020/12/29 04:29:16;;;;;;;22.40;12.78;;;;;;;1.66;76.66;100904.60;1761732;80;21867;-51
2020/12/29 04:32:21;;;;;;;20.35;13.15;;;;;;;1.75;76.61;100898.55;1761813;81;21338;-51
2020/12/29 04:35:27;;;;;;;20.27;13.15;;;;;;;1.85;76.54;100889.33;1761943;81;21354;-50
2020/12/29 04:38:33;;;;;;;20.35;12.55;;;;;;;1.94;76.39;100911.61;1762138;81;21457;-52
2020/12/29 04:41:39;;;;;;;21.10;13.18;;;;;;;1.95;76.05;100939.00;1761654;81;21322;-52
2020/12/29 04:44:51;;;;;;;17.25;12.00;;;;;;;1.87;75.92;100937.32;1761836;81;21440;-51
2020/12/29 04:47:57;;;;;;;17.55;12.13;;;;;;;1.79;76.02;100916.27;1761698;81;21254;-51
2020/12/29 04:51:14;;;;;;;18.92;12.15;;;;;;;1.78;76.20;100932.07;1761852;81;21246;-51
2020/12/29 04:54:20;;;;;;;17.55;12.10;;;;;;;1.80;76.23;100910.37;1761590;81;21357;-51
2020/12/29 04:57:26;;;;;;;18.20;12.60;;;;;;;1.84;76.24;100911.39;1761625;81;21204;-51
2020/12/29 05:00:34;;;;;;;19.45;12.45;;;;;;;1.81;76.06;100902.16;1761520;81;21203;-51
2020/12/29 05:03:51;;;;;;;19.57;12.93;;;;;;;1.84;76.29;100917.30;1761704;81;21370;-52
2020/12/29 05:06:58;;;;;;;21.68;14.23;;;;;;;1.91;76.29;100919.92;1761590;81;21204;-51
2020/12/29 05:10:14;;;;;;;21.05;13.58;;;;;;;1.91;76.15;100903.73;1761792;81;21231;-52
2020/12/29 05:13:20;;;;;;;20.65;13.22;;;;;;;1.96;76.21;100918.64;1762089;81;21365;-51
2020/12/29 05:16:25;;;;;;;20.82;13.50;;;;;;;1.97;76.12;100900.11;1735810;81;21314;-50
2020/12/29 05:19:32;;;;;;;22.98;13.40;;;;;;;2.06;76.20;100892.70;1761887;81;21982;-51
2020/12/29 05:22:40;;;;;;;20.30;13.45;;;;;;;2.06;75.79;100913.45;1761861;81;21887;-51
2020/12/29 05:25:53;;;;;;;21.95;13.75;;;;;;;2.02;75.88;100884.93;1761858;80;21772;-53
2020/12/29 05:28:59;;;;;;;;;;;;;;;2.08;75.94;100877.77;1764445;80;21381;-51
2020/12/29 05:32:05;;;;;;;21.90;13.55;;;;;;;2.12;75.87;100887.36;1735648;80;20271;-51
2020/12/29 05:35:12;;;;;;;21.10;13.18;;;;;;;2.13;75.85;100884.55;1736881;82;21204;-52
2020/12/29 05:38:17;;;;;;;20.68;13.08;;;;;;;2.15;75.76;100878.55;1737147;82;21803;-50
2020/12/29 05:41:27;;;;;;;17.70;12.13;;;;;;;2.11;75.76;100873.49;1720127;82;21409;-51
2020/12/29 05:44:40;;;;;;;20.20;12.45;;;;;;;2.14;75.87;100887.61;1720629;82;21311;-50
2020/12/29 05:47:45;;;;;;;18.40;12.03;;;;;;;2.12;75.76;100900.86;1736624;82;21362;-53
2020/12/29 05:50:50;;;;;;;19.27;12.73;;;;;;;2.02;75.74;100912.80;1736380;82;21180;-51
2020/12/29 05:53:56;;;;;;;21.30;13.20;;;;;;;1.98;75.93;100886.14;1736491;82;21204;-52
2020/12/29 05:57:02;;;;;;;20.15;13.35;;;;;;;2.03;76.23;100899.67;1736361;82;21168;-51
2020/12/29 06:00:13;;;;;;;19.15;11.55;;;;;;;2.08;76.12;100881.31;1741932;80;21184;-52
2020/12/29 06:03:17;;;;;;;18.50;11.93;;;;;;;2.13;76.18;100879.14;1720694;82;21250;-53
2020/12/29 06:06:22;;;;;;;21.10;12.53;;;;;;;2.06;76.08;100873.80;1742818;80;21725;-53
2020/12/29 06:09:29;;;;;;;20.43;12.98;;;;;;;2.03;76.15;100881.28;1759775;80;21262;-52
2020/12/29 06:12:39;;;;;;;18.90;12.18;;;;;;;1.98;76.32;100875.34;1752237;80;21180;-53
2020/12/29 06:15:46;;;;;;;22.00;12.37;;;;;;;2.01;76.50;100861.14;1758793;81;21174;-52
2020/12/29 06:18:53;;;;;;;14.95;10.15;;;;;;;2.07;76.58;100862.52;1760201;80;21695;-52
2020/12/29 06:22:14;;;;;;;17.92;12.05;;;;;;;2.10;76.58;100863.64;1743030;81;21199;-54
2020/12/29 06:25:25;;;;;;;18.92;11.40;;;;;;;2.12;76.64;100830.66;1735153;82;21203;-52
2020/12/29 06:28:32;;;;;;;19.55;11.30;;;;;;;2.23;76.72;100828.03;1735321;82;21200;-52
2020/12/29 06:31:38;;;;;;;21.52;13.43;;;;;;;2.24;76.52;100831.97;1738296;81;21204;-52
2020/12/29 06:34:43;;;;;;;19.25;11.68;;;;;;;2.24;76.48;100849.53;1769356;81;21915;-53
2020/12/29 06:38:02;;;;;;;17.82;10.93;;;;;;;2.22;76.42;100858.22;1770131;80;21208;-52
2020/12/29 06:41:06;;;;;;;17.70;11.00;;;;;;;2.15;76.45;100861.48;1761921;81;21180;-53
2020/12/29 06:44:12;;;;;;;19.98;12.45;;;;;;;2.14;76.71;100885.42;1754625;80;21213;-52
2020/12/29 06:47:18;;;;;;;22.73;12.82;;;;;;;2.09;76.84;100888.45;1762018;81;21185;-53
2020/12/29 06:50:34;;;;;;;18.57;11.10;;;;;;;2.04;77.06;100886.56;1765739;81;21741;-52
2020/12/29 06:53:42;;;;;;;19.02;12.10;;;;;;;1.97;77.13;100884.39;1767345;80;21721;-53
2020/12/29 06:57:04;;;;;;;17.98;11.25;;;;;;;1.92;77.46;100887.42;1749449;80;21196;-53
2020/12/29 07:00:20;;;;;;;21.45;12.23;;;;;;;1.94;77.69;100888.66;1751391;80;21177;-53
2020/12/29 07:03:26;;;;;;;19.57;11.43;;;;;;;1.95;77.81;100889.06;1763142;80;21966;-53
2020/12/29 07:06:37;;;;;;;16.85;10.88;;;;;;;1.95;77.92;100889.91;1733965;81;21232;-53
2020/12/29 07:09:42;;;;;;;20.60;12.53;;;;;;;1.93;78.12;100890.99;1765468;80;21693;-53
2020/12/29 07:12:56;;;;;;;19.20;11.63;;;;;;;1.99;78.22;100917.55;1743643;81;21606;-53
2020/12/29 07:16:04;;;;;;;19.30;11.55;;;;;;;2.03;78.29;100912.33;1757521;81;21161;-53
2020/12/29 07:19:17;;;;;;;16.20;10.75;;;;;;;2.04;78.34;100913.56;1771036;79;22017;-53
2020/12/29 07:22:25;;;;;;;19.73;11.68;;;;;;;2.07;78.42;100912.47;1763179;81;21173;-53
2020/12/29 07:25:33;;;;;;;19.55;11.85;;;;;;;2.08;78.46;100920.45;1787577;79;21570;-52
2020/12/29 07:28:39;;;;;;;19.15;11.50;;;;;;;2.15;78.57;100922.24;1779089;80;21627;-52
2020/12/29 07:31:49;;;;;;;18.57;10.58;;;;;;;2.16;78.51;100914.50;1756970;79;21263;-52
2020/12/29 07:34:57;;;;;;;20.12;11.70;;;;;;;2.14;78.54;100918.66;1779268;79;21161;-53
2020/12/29 07:38:04;;;;;;;18.25;10.72;;;;;;;2.15;78.57;100951.47;1773799;80;21204;-53
2020/12/29 07:41:09;;;;;;;17.92;10.88;;;;;;;2.14;78.61;100945.67;1772606;80;21177;-53
2020/12/29 07:44:15;;;;;;;18.57;11.10;;;;;;;2.19;78.78;100922.41;1760399;80;21243;-53
2020/12/29 07:47:20;;;;;;;18.80;11.57;;;;;;;2.22;78.78;100925.73;1764942;79;21204;-52
2020/12/29 07:50:27;;;;;;;18.65;11.83;;;;;;;2.24;78.83;100900.84;1770394;80;21865;-53
2020/12/29 07:53:32;;;;;;;20.80;11.48;;;;;;;2.26;78.84;100904.78;1770911;80;21263;-52
2020/12/29 07:56:39;;;;;;;20.37;12.03;;;;;;;2.28;78.82;100894.73;1773108;80;21204;-52
2020/12/29 07:59:48;;;;;;;18.10;10.85;;;;;;;2.32;78.93;100896.23;1772355;80;21864;-53
2020/12/29 08:03:01;;;;;;;20.97;12.58;;;;;;;2.36;78.89;100900.45;1771675;80;21865;-52
2020/12/29 08:06:07;;;;;;;18.05;11.45;;;;;;;2.41;78.88;100899.63;1770539;80;21180;-53
2020/12/29 08:09:12;;;;;;;18.80;11.38;;;;;;;2.46;78.93;100892.90;1752194;80;21168;-52
2020/12/29 08:12:17;;;;;;;19.55;11.50;;;;;;;2.54;78.82;100900.44;1740114;82;21557;-52
2020/12/29 08:15:41;;;;;;;20.82;11.60;;;;;;;2.53;78.64;100902.78;1740885;82;21721;-53
2020/12/29 08:18:46;;;;;;;20.05;11.25;;;;;;;2.48;78.62;100911.70;1740969;82;21779;-53
2020/12/29 08:21:52;;;;;;;17.55;10.35;;;;;;;2.47;78.74;100909.98;1741954;82;21232;-52
2020/12/29 08:24:58;;;;;;;16.50;10.48;;;;;;;2.45;78.84;100915.98;1740965;82;21319;-52
2020/12/29 08:28:05;;;;;;;17.23;10.68;;;;;;;2.47;78.87;100900.05;1741845;82;21879;-51
2020/12/29 08:31:13;;;;;;;16.12;9.53;;;;;;;2.49;78.86;100902.13;1740950;81;21515;-52
2020/12/29 08:34:19;;;;;;;18.00;11.28;;;;;;;2.57;78.96;100875.41;1739782;81;21257;-53
2020/12/29 08:37:24;;;;;;;22.05;11.22;;;;;;;2.65;78.84;100846.45;1738961;82;21185;-52
2020/12/29 08:40:30;;;;;;;15.40;9.98;;;;;;;2.69;78.73;100847.97;1738447;82;21229;-52
2020/12/29 08:43:37;;;;;;;23.12;14.35;;;;;;;2.74;78.60;100834.98;1739172;82;21224;-53
2020/12/29 08:46:44;;;;;;;16.40;9.73;;;;;;;2.77;78.60;100844.20;1739385;82;21212;-52
2020/12/29 08:49:50;;;;;;;17.17;10.70;;;;;;;2.80;78.54;100849.38;1751700;80;21230;-53
2020/12/29 08:53:14;;;;;;;14.95;10.28;;;;;;;2.78;78.34;100841.39;1765360;80;21328;-53
2020/12/29 08:56:34;;;;;;;14.43;9.50;;;;;;;2.73;78.46;100836.81;1759352;81;21201;-52
2020/12/29 08:59:53;;;;;;;14.47;9.03;;;;;;;2.75;78.46;100836.70;1763570;81;21371;-55
2020/12/29 09:03:06;;;;;;;17.15;10.63;;;;;;;2.73;78.41;100842.70;1727855;80;21690;-51
2020/12/29 09:06:16;;;;;;;17.10;10.10;;;;;;;2.64;78.51;100836.16;1760675;80;21240;-53
2020/12/29 09:09:24;;;;;;;17.25;10.20;;;;;;;2.64;78.69;100833.94;1768380;80;21359;-52
2020/12/29 09:12:47;;;;;;;20.25;11.20;;;;;;;2.66;78.74;100819.83;1770566;80;21221;-54
2020/12/29 09:15:54;;;;;;;17.92;11.15;;;;;;;2.66;78.77;100822.53;1763236;80;21759;-51
2020/12/29 09:18:58;;;;;;;22.37;13.20;;;;;;;2.69;78.88;100822.30;1760466;81;21350;-53
2020/12/29 09:22:18;;;;;;;18.23;11.08;;;;;;;2.68;78.88;100835.45;1762741;80;21581;-51
2020/12/29 09:25:37;;;;;;;17.50;9.63;;;;;;;2.74;78.94;100837.69;1749113;79;21237;-53
2020/12/29 09:28:42;;;;;;;21.42;14.10;;;;;;;2.75;78.90;100835.34;1741976;80;21179;-53
2020/12/29 09:31:47;;;;;;;22.02;12.28;;;;;;;2.69;78.85;100854.73;1760021;79;21221;-52
2020/12/29 09:35:23;;;;;;;21.07;12.93;;;;;;;2.69;78.96;100852.02;1748124;80;21754;-53
2020/12/29 09:38:05;;;;;;;17.92;9.83;;;;;;;2.68;79.01;100837.64;1760277;80;21365;-54
2020/12/29 09:41:12;;;;;;;15.70;10.28;;;;;;;2.66;79.03;100857.66;1763718;80;21747;-55
2020/12/29 09:44:17;;;;;;;16.42;9.98;;;;;;;2.63;79.20;100863.30;1753421;80;21200;-51
2020/12/29 09:47:23;;;;;;;27.02;11.53;;;;;;;2.68;79.20;100857.07;1762895;80;21177;-52
2020/12/29 09:50:35;;;;;;;19.85;11.93;;;;;;;2.65;79.17;100854.56;1751435;80;21494;-52
2020/12/29 09:53:41;;;;;;;19.25;11.08;;;;;;;2.64;79.26;100856.42;1740013;82;21217;-51
2020/12/29 09:56:46;;;;;;;23.52;13.25;;;;;;;2.63;79.36;100865.49;1741824;82;21327;-52
2020/12/29 09:59:53;;;;;;;20.88;12.03;;;;;;;2.62;79.38;100860.20;1741557;82;21301;-53
2020/12/29 10:03:09;;;;;;;19.75;11.00;;;;;;;2.64;79.53;100858.26;1740903;82;21271;-52
2020/12/29 10:06:15;;;;;;;20.23;12.78;;;;;;;2.65;79.53;100846.45;1743425;80;21453;-52
2020/12/29 10:09:20;;;;;;;17.92;10.85;;;;;;;2.66;79.59;100846.85;1749983;80;21339;-51
2020/12/29 10:12:24;;;;;;;18.60;11.25;;;;;;;2.69;79.60;100831.28;1769005;80;21228;-51
2020/12/29 10:15:29;;;;;;;19.70;11.63;;;;;;;2.69;79.53;100843.92;1768997;81;21756;-52
2020/12/29 10:18:34;;;;;;;18.02;10.53;;;;;;;2.72;79.64;100836.45;1762746;81;21201;-52
2020/12/29 10:21:43;;;;;;;20.20;11.40;;;;;;;2.74;79.57;100802.55;1769094;80;21173;-52
2020/12/29 10:24:45;;;;;;;18.87;11.57;;;;;;;2.72;79.54;100789.16;1770450;80;21201;-52
2020/12/29 10:27:53;;;;;;;19.10;11.28;;;;;;;2.77;79.62;100775.28;1758964;80;21177;-52
2020/12/29 10:30:58;;;;;;;19.60;11.05;;;;;;;2.77;79.55;100775.28;1753882;80;21494;-52
2020/12/29 10:34:03;;;;;;;18.60;11.78;;;;;;;2.81;79.63;100791.62;1770952;80;21196;-52
2020/12/29 10:37:09;;;;;;;21.80;12.82;;;;;;;2.84;79.57;100789.55;1769154;79;21200;-52
2020/12/29 10:40:14;;;;;;;20.00;12.23;;;;;;;2.89;79.51;100778.38;1771547;80;22060;-51
2020/12/29 10:43:21;;;;;;;17.73;11.38;;;;;;;2.90;79.36;100775.56;1771814;80;21244;-52
2020/12/29 10:46:25;;;;;;;19.02;11.88;;;;;;;2.91;79.36;100766.49;1771949;80;21208;-53
2020/12/29 10:49:36;;;;;;;17.70;11.15;;;;;;;2.89;79.32;100771.15;1772756;80;21703;-52
2020/12/29 10:52:41;;;;;;;18.82;11.63;;;;;;;2.91;79.37;100763.78;1772589;80;21216;-55
2020/12/29 10:55:45;;;;;;;19.02;11.30;;;;;;;2.94;79.35;100766.25;1772482;80;21188;-53
2020/12/29 10:58:51;;;;;;;19.80;11.63;;;;;;;2.98;79.42;100753.36;1772834;80;21291;-53
2020/12/29 11:01:56;;;;;;;20.88;12.65;;;;;;;3.01;79.27;100754.47;1761448;80;21232;-51
2020/12/29 11:05:03;;;;;;;22.32;13.05;;;;;;;3.04;79.23;100761.00;1755722;80;21208;-52
2020/12/29 11:08:09;;;;;;;22.67;13.90;;;;;;;3.09;79.08;100764.20;1764909;80;21340;-51
2020/12/29 11:11:17;;;;;;;22.10;13.85;;;;;;;3.14;79.14;100770.61;1766473;80;21268;-52
2020/12/29 11:14:22;;;;;;;19.90;12.70;;;;;;;3.24;79.04;100764.34;1766513;81;21365;-52
2020/12/29 11:17:29;;;;;;;23.42;12.88;;;;;;;3.28;78.89;100773.09;1749414;80;21569;-52
2020/12/29 11:20:35;;;;;;;22.95;12.90;;;;;;;3.28;78.56;100771.73;1751174;80;21667;-52
2020/12/29 11:23:42;;;;;;;22.65;13.80;;;;;;;3.27;78.50;100767.32;1762912;80;21247;-51
2020/12/29 11:26:53;;;;;;;26.82;14.25;;;;;;;3.20;78.38;100752.55;1740361;82;21631;-51
2020/12/29 11:30:00;;;;;;;21.77;13.43;;;;;;;3.12;78.46;100749.09;1740350;80;22010;-55
2020/12/29 11:33:06;;;;;;;25.20;15.08;;;;;;;3.12;78.64;100744.16;1763011;81;21268;-52
2020/12/29 11:36:12;;;;;;;24.30;13.30;;;;;;;3.13;78.66;100737.76;1763394;78;21255;-53
2020/12/29 11:39:22;;;;;;;23.05;12.58;;;;;;;3.13;78.72;100741.81;1778605;80;21231;-53
2020/12/29 11:42:29;;;;;;;24.23;14.33;;;;;;;3.11;78.70;100732.47;1775414;80;22143;-53
2020/12/29 11:45:37;;;;;;;21.80;13.10;;;;;;;3.08;78.76;100720.55;1781562;80;21346;-53
2020/12/29 11:48:42;;;;;;;25.40;14.55;;;;;;;3.12;78.93;100720.70;1780255;80;21188;-53
2020/12/29 11:51:54;;;;;;;27.25;15.38;;;;;;;3.18;78.92;100722.91;1761589;81;21742;-53
2020/12/29 11:55:01;;;;;;;21.77;13.50;;;;;;;3.19;78.72;100714.31;1765311;81;21327;-52
2020/12/29 11:58:12;;;;;;;21.12;12.82;;;;;;;3.14;78.79;100721.41;1766434;81;21757;-53
2020/12/29 12:01:27;;;;;;;25.35;14.43;;;;;;;3.13;78.90;100713.42;1760567;81;21347;-52
2020/12/29 12:04:36;;;;;;;24.37;13.83;;;;;;;3.12;78.88;100720.70;1759781;81;21212;-53
2020/12/29 12:07:42;;;;;;;24.90;13.58;;;;;;;3.11;78.97;100712.19;1756808;80;21228;-55
2020/12/29 12:10:47;;;;;;;22.25;13.72;;;;;;;3.13;79.19;100723.76;1763750;81;21221;-53
2020/12/29 12:13:54;;;;;;;23.07;14.13;;;;;;;3.22;79.17;100710.84;1769126;81;21220;-52
2020/12/29 12:17:00;;;;;;;23.77;13.15;;;;;;;3.24;79.04;100706.19;1753068;81;21192;-53
2020/12/29 12:20:06;;;;;;;23.70;14.43;;;;;;;3.24;78.95;100702.61;1759251;81;21302;-52
2020/12/29 12:23:13;;;;;;;26.52;15.50;;;;;;;3.25;79.01;100700.30;1746328;81;21268;-53
2020/12/29 12:26:26;;;;;;;21.48;13.35;;;;;;;3.27;78.95;100695.13;1764012;80;21181;-53
2020/12/29 12:29:34;;;;;;;27.00;15.38;;;;;;;3.20;78.81;100704.73;1763050;80;21251;-53
2020/12/29 12:32:39;;;;;;;26.62;15.93;;;;;;;3.15;78.97;100697.46;1762828;80;21216;-52
2020/12/29 12:35:44;;;;;;;26.57;15.18;;;;;;;3.18;79.19;100700.40;1742151;81;21255;-53
2020/12/29 12:38:50;;;;;;;26.85;15.85;;;;;;;3.25;79.23;100684.91;1760023;78;21201;-52
2020/12/29 12:41:55;;;;;;;26.25;14.63;;;;;;;3.34;79.29;100677.43;1769698;80;21177;-52
2020/12/29 12:45:01;;;;;;;21.00;12.70;;;;;;;3.45;79.12;100680.13;1745179;80;21189;-53
2020/12/29 12:48:07;;;;;;;24.92;13.85;;;;;;;3.51;78.98;100686.40;1745052;81;21744;-52
2020/12/29 12:51:13;;;;;;;24.10;13.22;;;;;;;3.56;78.98;100703.61;1770495;80;21192;-53
2020/12/29 12:54:18;;;;;;;21.15;13.08;;;;;;;3.62;78.63;100712.10;1726141;80;22060;-53
2020/12/29 12:57:23;;;;;;;31.00;17.02;;;;;;;3.59;78.52;100704.23;1749619;81;21725;-53
2020/12/29 13:00:28;;;;;;;27.05;15.25;;;;;;;3.58;78.45;100709.77;1738094;82;21252;-52
2020/12/29 13:03:32;;;;;;;25.70;14.55;;;;;;;3.61;78.53;100719.86;1737294;82;21237;-53
2020/12/29 13:06:38;;;;;;;26.87;15.03;;;;;;;3.65;78.47;100713.69;1741524;79;21626;-55
2020/12/29 13:09:43;;;;;;;25.80;15.75;;;;;;;3.66;78.44;100710.89;1763636;80;21260;-52
2020/12/29 13:12:49;;;;;;;25.15;14.13;;;;;;;3.71;78.42;100711.34;1740517;81;21336;-53
2020/12/29 13:15:54;;;;;;;23.40;13.32;;;;;;;3.79;78.25;100702.63;1768524;81;21169;-53
2020/12/29 13:18:59;;;;;;;26.55;15.13;;;;;;;3.77;78.06;100710.88;1762302;81;21546;-53
2020/12/29 13:22:04;;;;;;;26.82;15.85;;;;;;;3.71;77.93;100720.83;1767165;80;21189;-53
2020/12/29 13:25:10;;;;;;;37.93;17.23;;;;;;;3.78;78.20;100722.06;1767427;80;21193;-53
2020/12/29 13:28:15;;;;;;;32.23;18.02;;;;;;;3.78;77.96;100709.88;1747329;81;21216;-52
2020/12/29 13:31:21;;;;;;;35.28;17.55;;;;;;;3.75;77.85;100726.38;1737635;80;21205;-52
2020/12/29 13:34:27;;;;;;;31.00;17.40;;;;;;;3.70;77.89;100725.88;1738521;80;21201;-55
2020/12/29 13:37:31;;;;;;;21.17;12.18;;;;;;;3.60;77.87;100722.18;1750858;80;21197;-51
2020/12/29 13:40:37;;;;;;;26.57;15.20;;;;;;;3.46;78.09;100717.02;1739202;80;21785;-53
2020/12/29 13:43:42;;;;;;;24.07;14.25;;;;;;;3.34;78.41;100715.79;1738344;82;21554;-53
2020/12/29 13:46:48;;;;;;;27.87;15.53;;;;;;;3.29;78.82;100735.09;1749211;81;21188;-53
2020/12/29 13:49:53;;;;;;;26.37;14.83;;;;;;;3.30;79.02;100723.80;1755045;80;21333;-52
2020/12/29 13:52:58;;;;;;;28.07;15.68;;;;;;;3.28;79.22;100719.86;1769275;80;21217;-52
2020/12/29 13:56:04;;;;;;;30.77;16.75;;;;;;;3.26;79.31;100704.72;1749782;81;21177;-52
2020/12/29 13:59:15;;;;;;;31.55;17.12;;;;;;;3.22;79.46;100709.50;1740087;81;21284;-52
2020/12/29 14:02:19;;;;;;;23.32;13.45;;;;;;;3.19;79.62;100717.02;1762183;81;21574;-53
2020/12/29 14:05:26;;;;;;;23.50;14.10;;;;;;;3.20;79.87;100716.02;1759255;81;21203;-53
2020/12/29 14:08:32;;;;;;;28.55;15.95;;;;;;;3.18;79.87;100711.22;1759014;81;21217;-53
2020/12/29 14:11:36;;;;;;;28.17;15.23;;;;;;;3.16;80.06;100709.98;1764062;81;21192;-54
2020/12/29 14:14:43;;;;;;;27.67;14.73;;;;;;;3.16;80.08;100701.87;1760753;81;21205;-54
2020/12/29 14:17:48;;;;;;;29.98;17.73;;;;;;;3.12;80.37;100696.35;1764189;81;21209;-53
2020/12/29 14:20:53;;;;;;;26.90;15.20;;;;;;;3.14;80.43;100709.24;1767942;80;21185;-53